createdAt,value
2017-09-15T00:01:11.677Z,1.33
2017-09-15T00:03:39.244Z,1.20
2017-09-15T00:06:06.837Z,1.20
2017-09-15T00:08:34.418Z,1.20
2017-09-15T00:11:01.959Z,1.30
2017-09-15T00:13:29.500Z,1.40
2017-09-15T00:15:59.850Z,1.40
2017-09-15T00:18:27.462Z,1.25
2017-09-15T00:20:55.002Z,1.23
2017-09-15T00:23:22.563Z,1.30
2017-09-15T00:25:58.836Z,1.00
2017-09-15T00:28:26.394Z,1.20
2017-09-15T00:30:54.737Z,1.30
2017-09-15T00:33:22.299Z,1.55
2017-09-15T00:35:50.842Z,1.17
2017-09-15T00:38:18.415Z,1.27
2017-09-15T00:40:45.955Z,0.98
2017-09-15T00:43:14.338Z,1.20
2017-09-15T00:45:41.894Z,1.40
2017-09-15T00:48:10.222Z,1.30
2017-09-15T00:50:37.763Z,1.40
2017-09-15T00:53:05.309Z,1.25
2017-09-15T00:55:32.848Z,1.40
2017-09-15T00:58:00.397Z,1.80
2017-09-15T01:00:27.908Z,1.10
2017-09-15T01:02:55.484Z,1.35
2017-09-15T01:05:25.027Z,1.33
2017-09-15T01:07:52.606Z,1.40
2017-09-15T01:10:20.117Z,1.20
2017-09-15T01:12:47.663Z,1.12
2017-09-15T01:15:15.182Z,1.30
2017-09-15T01:17:42.740Z,1.87
2017-09-15T01:20:10.301Z,1.30
2017-09-15T01:22:37.855Z,1.30
2017-09-15T01:25:05.411Z,1.20
2017-09-15T01:27:32.952Z,1.20
2017-09-15T01:30:01.265Z,1.40
2017-09-15T01:32:28.810Z,1.42
2017-09-15T01:34:57.288Z,1.30
2017-09-15T01:37:24.839Z,1.05
2017-09-15T01:39:53.134Z,1.35
2017-09-15T01:42:20.694Z,1.10
2017-09-15T01:44:48.232Z,1.20
2017-09-15T01:47:16.564Z,1.10
2017-09-15T01:49:44.118Z,1.20
2017-09-15T01:52:11.674Z,1.08
2017-09-15T01:54:39.201Z,1.27
2017-09-15T01:57:06.755Z,1.35
2017-09-15T01:59:34.333Z,1.67
2017-09-15T02:02:01.895Z,1.90
2017-09-15T02:04:29.447Z,1.58
2017-09-15T02:06:57.006Z,1.40
2017-09-15T02:09:24.587Z,1.23
2017-09-15T02:11:52.123Z,1.40
2017-09-15T02:14:19.711Z,1.70
2017-09-15T02:16:47.232Z,1.30
2017-09-15T02:19:14.795Z,1.70
2017-09-15T02:21:42.345Z,1.35
2017-09-15T02:24:09.901Z,1.80
2017-09-15T02:35:28.749Z,1.25
2017-09-15T02:37:56.286Z,1.67
2017-09-15T02:40:23.824Z,1.30
2017-09-15T02:42:52.136Z,1.75
2017-09-15T02:45:23.254Z,1.50
2017-09-15T02:47:50.807Z,1.80
2017-09-15T02:50:18.357Z,1.33
2017-09-15T02:52:46.637Z,1.45
2017-09-15T02:55:15.986Z,1.37
2017-09-15T02:57:43.523Z,1.62
2017-09-15T03:00:11.083Z,1.48
2017-09-15T03:02:38.601Z,1.37
2017-09-15T03:05:06.162Z,1.40
2017-09-15T03:07:33.718Z,1.60
2017-09-15T03:10:01.267Z,1.90
2017-09-15T03:12:28.790Z,1.37
2017-09-15T03:14:56.311Z,1.40
2017-09-15T03:17:23.838Z,1.58
2017-09-15T03:19:51.365Z,1.52
2017-09-15T03:22:18.895Z,2.55
2017-09-15T03:24:46.433Z,1.40
2017-09-15T03:27:14.748Z,1.55
2017-09-15T03:29:42.309Z,1.42
2017-09-15T03:32:09.805Z,1.85
2017-09-15T03:34:37.373Z,1.85
2017-09-15T03:37:05.661Z,1.80
2017-09-15T03:39:33.189Z,2.20
2017-09-15T03:42:00.713Z,1.73
2017-09-15T03:44:28.244Z,1.90
2017-09-15T03:46:56.513Z,1.60
2017-09-15T03:49:24.817Z,1.58
2017-09-15T03:51:52.334Z,1.70
2017-09-15T03:54:19.857Z,1.50
2017-09-15T03:56:47.361Z,1.65
2017-09-15T03:59:14.917Z,1.52
2017-09-15T04:01:42.423Z,1.65
2017-09-15T04:04:09.961Z,1.98
2017-09-15T04:06:37.460Z,1.45
2017-09-15T04:09:04.998Z,1.67
2017-09-15T04:11:32.513Z,1.35
2017-09-15T04:14:00.033Z,1.70
2017-09-15T04:16:27.544Z,1.42
2017-09-15T04:18:55.085Z,1.67
2017-09-15T04:21:23.391Z,1.50
2017-09-15T04:23:50.919Z,1.73
2017-09-15T04:26:19.193Z,1.40
2017-09-15T04:28:46.737Z,1.50
2017-09-15T04:31:14.261Z,1.20
2017-09-15T04:33:41.789Z,1.50
2017-09-15T04:36:09.297Z,1.52
2017-09-15T04:38:36.835Z,1.77
2017-09-15T04:41:04.345Z,2.15
2017-09-15T04:43:31.885Z,1.60
2017-09-15T04:46:04.378Z,1.45
2017-09-15T04:48:31.934Z,2.37
2017-09-15T04:51:00.235Z,1.85
2017-09-15T04:53:34.370Z,1.65
2017-09-15T04:56:01.994Z,1.95
2017-09-15T04:58:33.313Z,1.90
2017-09-15T05:01:00.816Z,1.67
2017-09-15T05:03:28.343Z,1.80
2017-09-15T05:05:56.628Z,1.60
2017-09-15T05:08:24.933Z,1.45
2017-09-15T05:10:52.429Z,1.87
2017-09-15T05:13:19.949Z,1.80
2017-09-15T05:15:47.449Z,2.00
2017-09-15T05:41:39.869Z,1.80
2017-09-15T05:44:07.616Z,3.33
2017-09-15T05:46:35.728Z,1.60
2017-09-15T05:49:03.347Z,1.73
2017-09-15T05:51:31.647Z,2.83
2017-09-15T05:53:59.169Z,2.05
2017-09-15T05:56:27.021Z,1.90
2017-09-15T05:58:54.536Z,2.00
2017-09-15T06:01:22.042Z,1.62
2017-09-15T06:03:49.565Z,2.15
2017-09-15T06:06:17.073Z,1.83
2017-09-15T06:08:44.594Z,1.80
2017-09-15T06:11:12.087Z,1.90
2017-09-15T06:13:39.608Z,1.60
2017-09-15T06:16:07.141Z,1.45
2017-09-15T06:18:34.700Z,1.65
2017-09-15T06:21:02.217Z,1.75
2017-09-15T06:23:29.724Z,2.30
2017-09-15T06:25:57.273Z,2.05
2017-09-15T06:28:24.813Z,1.83
2017-09-15T06:30:53.088Z,2.42
2017-09-15T06:33:20.607Z,2.10
2017-09-15T06:35:48.128Z,2.05
2017-09-15T06:38:15.661Z,1.60
2017-09-15T06:40:43.933Z,2.35
2017-09-15T06:43:11.455Z,2.12
2017-09-15T06:45:38.962Z,1.55
2017-09-15T06:48:07.257Z,1.77
2017-09-15T06:50:34.785Z,2.08
2017-09-15T06:53:02.409Z,1.62
2017-09-15T06:55:29.915Z,2.15
2017-09-15T06:57:57.441Z,1.40
2017-09-15T07:00:24.964Z,2.05
2017-09-15T07:02:52.493Z,1.40
2017-09-15T07:05:20.761Z,2.00
2017-09-15T07:07:49.068Z,1.90
2017-09-15T07:10:16.572Z,1.75
2017-09-15T07:12:44.088Z,1.52
2017-09-15T07:15:11.604Z,1.23
2017-09-15T07:17:39.100Z,1.55
2017-09-15T07:20:06.624Z,1.37
2017-09-15T07:22:34.137Z,1.60
2017-09-15T07:25:01.668Z,1.70
2017-09-15T07:27:29.181Z,1.90
2017-09-15T07:29:56.701Z,1.52
2017-09-15T07:32:24.227Z,1.70
2017-09-15T07:34:52.521Z,1.77
2017-09-15T07:37:20.045Z,1.60
2017-09-15T07:39:47.569Z,1.45
2017-09-15T07:42:15.087Z,1.45
2017-09-15T07:44:42.605Z,1.85
2017-09-15T07:47:10.129Z,1.27
2017-09-15T07:49:37.659Z,1.30
2017-09-15T07:52:05.172Z,1.70
2017-09-15T07:54:32.696Z,1.40
2017-09-15T07:57:00.229Z,1.98
2017-09-15T07:59:27.748Z,1.43
2017-09-15T08:01:55.307Z,1.90
2017-09-15T08:04:22.828Z,1.75
2017-09-15T08:06:50.346Z,2.13
2017-09-15T08:09:17.929Z,2.43
2017-09-15T08:11:45.456Z,1.52
2017-09-15T08:14:12.976Z,1.42
2017-09-15T08:16:40.472Z,1.60
2017-09-15T08:19:08.002Z,1.50
2017-09-15T08:21:35.525Z,1.65
2017-09-15T08:24:03.052Z,1.70
2017-09-15T08:26:31.347Z,1.77
2017-09-15T08:28:59.641Z,1.63
2017-09-15T08:31:27.160Z,1.65
2017-09-15T08:33:54.701Z,1.62
2017-09-15T08:36:22.208Z,1.60
2017-09-15T08:38:49.728Z,1.63
2017-09-15T08:41:17.233Z,1.50
2017-09-15T08:43:44.760Z,1.40
2017-09-15T08:46:12.289Z,1.60
2017-09-15T08:48:39.813Z,1.40
2017-09-15T08:51:07.329Z,1.33
2017-09-15T08:53:34.860Z,1.70
2017-09-15T08:56:02.352Z,1.40
2017-09-15T08:58:30.645Z,1.33
2017-09-15T09:00:58.913Z,1.30
2017-09-15T09:03:27.217Z,1.40
2017-09-15T09:05:54.733Z,1.27
2017-09-15T09:08:22.265Z,1.53
2017-09-15T09:10:49.773Z,1.37
2017-09-15T09:13:17.284Z,1.30
2017-09-15T09:15:44.947Z,1.80
2017-09-15T09:18:12.897Z,1.40
2017-09-15T09:20:40.397Z,1.53
2017-09-15T09:23:08.845Z,1.90
2017-09-15T09:25:36.359Z,1.30
2017-09-15T09:28:03.896Z,1.80
2017-09-15T09:30:31.397Z,1.47
2017-09-15T09:32:58.905Z,1.70
2017-09-15T09:35:26.413Z,1.40
2017-09-15T09:37:53.928Z,1.90
2017-09-15T09:40:21.442Z,1.40
2017-09-15T09:42:48.988Z,1.40
2017-09-15T09:45:16.488Z,1.73
2017-09-15T09:47:44.004Z,1.80
2017-09-15T09:50:11.504Z,1.17
2017-09-15T09:52:39.033Z,1.50
2017-09-15T09:55:06.557Z,1.50
2017-09-15T09:57:34.082Z,1.80
2017-09-15T10:00:01.589Z,1.33
2017-09-15T10:02:29.101Z,1.50
2017-09-15T10:04:56.621Z,1.37
2017-09-15T10:07:24.184Z,1.47
2017-09-15T10:09:51.705Z,1.50
2017-09-15T10:12:19.256Z,1.90
2017-09-15T10:14:47.606Z,1.70
2017-09-15T10:17:15.129Z,1.60
2017-09-15T10:19:43.176Z,1.43
2017-09-15T10:22:10.717Z,2.17
2017-09-15T10:24:38.986Z,1.70
2017-09-15T10:27:07.284Z,1.70
2017-09-15T10:29:34.802Z,1.80
2017-09-15T10:32:02.335Z,1.70
2017-09-15T10:34:29.852Z,1.37
2017-09-15T10:36:58.162Z,1.53
2017-09-15T10:39:25.684Z,1.43
2017-09-15T10:41:53.988Z,1.20
2017-09-15T10:44:21.574Z,0.93
2017-09-15T10:46:49.105Z,1.10
2017-09-15T10:49:16.605Z,1.13
2017-09-15T10:51:44.142Z,1.33
2017-09-15T10:54:11.678Z,1.10
2017-09-15T10:56:39.195Z,1.17
2017-09-15T10:59:12.408Z,1.30
2017-09-15T11:01:40.001Z,1.17
2017-09-15T11:04:08.436Z,1.30
2017-09-15T11:06:36.715Z,1.10
2017-09-15T11:09:05.022Z,1.60
2017-09-15T11:11:32.541Z,1.40
2017-09-15T11:14:00.878Z,1.27
2017-09-15T11:16:28.393Z,1.40
2017-09-15T11:18:55.921Z,1.50
2017-09-15T11:21:23.425Z,1.30
2017-09-15T11:23:51.101Z,1.00
2017-09-15T11:26:18.641Z,1.90
2017-09-15T11:28:46.191Z,1.07
2017-09-15T11:31:14.465Z,1.30
2017-09-15T11:33:52.334Z,1.63
2017-09-15T11:36:19.860Z,1.20
2017-09-15T11:38:47.392Z,1.30
2017-09-15T11:41:14.917Z,1.00
2017-09-15T11:43:50.043Z,1.20
2017-09-15T11:46:18.437Z,1.03
2017-09-15T11:48:45.978Z,1.10
2017-09-15T11:51:13.517Z,1.30
2017-09-15T11:53:43.053Z,1.23
2017-09-15T11:56:10.560Z,1.20
2017-09-15T11:58:38.101Z,1.00
2017-09-15T12:01:05.622Z,1.00
2017-09-15T12:03:33.325Z,1.30
2017-09-15T12:06:00.832Z,1.03
2017-09-15T12:08:28.358Z,1.50
2017-09-15T12:10:55.899Z,1.10
2017-09-15T12:13:23.420Z,1.13
2017-09-15T12:15:50.935Z,1.40
2017-09-15T12:18:18.466Z,1.20
2017-09-15T12:20:46.757Z,1.40
2017-09-15T12:23:14.302Z,1.17
2017-09-15T12:25:41.835Z,1.07
2017-09-15T12:28:10.145Z,1.10
2017-09-15T12:30:37.653Z,1.43
2017-09-15T12:33:05.191Z,1.00
2017-09-15T12:35:32.697Z,2.23
2017-09-15T12:38:01.005Z,1.37
2017-09-15T12:40:28.583Z,1.23
2017-09-15T12:42:56.163Z,1.20
2017-09-15T12:45:23.681Z,1.23
2017-09-15T12:47:51.230Z,1.03
2017-09-15T12:50:18.793Z,1.30
2017-09-15T12:52:46.334Z,1.43
2017-09-15T12:55:13.844Z,1.30
2017-09-15T12:57:41.413Z,1.63
2017-09-15T13:00:08.925Z,0.90
2017-09-15T13:02:36.462Z,1.50
2017-09-15T13:05:04.745Z,1.30
2017-09-15T13:07:32.298Z,1.37
2017-09-15T13:09:59.822Z,1.20
2017-09-15T13:12:27.362Z,2.13
2017-09-15T13:14:54.874Z,1.23
2017-09-15T13:17:23.173Z,1.43
2017-09-15T13:19:50.728Z,1.33
2017-09-15T13:22:18.293Z,1.20
2017-09-15T13:24:45.867Z,1.00
2017-09-15T13:27:13.398Z,1.17
2017-09-15T13:29:40.915Z,1.87
2017-09-15T13:32:08.454Z,1.27
2017-09-15T13:34:35.981Z,1.30
2017-09-15T13:37:03.526Z,1.60
2017-09-15T13:39:31.045Z,1.17
2017-09-15T13:41:58.579Z,1.10
2017-09-15T13:44:26.087Z,1.10
2017-09-15T13:46:54.395Z,1.37
2017-09-15T13:49:21.923Z,1.00
2017-09-15T13:51:50.206Z,1.00
2017-09-15T13:54:18.485Z,1.50
2017-09-15T13:56:46.782Z,1.53
2017-09-15T13:59:14.293Z,1.50
2017-09-15T14:01:41.816Z,1.00
2017-09-15T14:04:09.316Z,1.60
2017-09-15T14:06:36.838Z,1.20
2017-09-15T14:09:04.385Z,1.50
2017-09-15T14:11:31.929Z,1.40
2017-09-15T14:13:59.441Z,1.40
2017-09-15T14:16:26.968Z,1.00
2017-09-15T14:18:54.528Z,1.20
2017-09-15T14:21:22.051Z,1.43
2017-09-15T14:23:50.360Z,1.30
2017-09-15T14:26:17.925Z,1.23
2017-09-15T14:28:45.442Z,1.27
2017-09-15T14:31:13.744Z,1.80
2017-09-15T14:33:41.269Z,1.73
2017-09-15T14:36:09.562Z,1.43
2017-09-15T14:38:37.085Z,1.50
2017-09-15T14:41:04.610Z,1.23
2017-09-15T14:43:32.161Z,1.23
2017-09-15T14:46:00.616Z,1.53
2017-09-15T14:48:28.125Z,1.63
2017-09-15T14:50:55.643Z,1.20
2017-09-15T14:53:23.145Z,1.50
2017-09-15T14:55:50.685Z,1.20
2017-09-15T14:58:18.227Z,1.20
2017-09-15T15:00:45.758Z,1.20
2017-09-15T15:03:13.279Z,1.17
2017-09-15T15:05:40.815Z,1.20
2017-09-15T15:08:08.325Z,1.30
2017-09-15T15:10:36.621Z,1.10
2017-09-15T15:13:04.153Z,1.33
2017-09-15T15:15:32.442Z,1.10
2017-09-15T15:18:00.741Z,1.23
2017-09-15T15:20:28.277Z,1.30
2017-09-15T15:22:56.588Z,1.40
2017-09-15T15:25:24.106Z,1.53
2017-09-15T15:27:52.409Z,1.33
2017-09-15T15:30:19.917Z,1.20
2017-09-15T15:32:47.493Z,1.30
2017-09-15T15:35:15.014Z,1.23
2017-09-15T15:37:42.628Z,1.40
2017-09-15T15:40:10.159Z,1.70
2017-09-15T15:42:37.690Z,1.20
2017-09-15T15:45:05.193Z,1.20
2017-09-15T15:47:33.498Z,1.10
2017-09-15T15:50:01.009Z,1.10
2017-09-15T15:52:28.546Z,1.27
2017-09-15T15:54:56.050Z,1.13
2017-09-15T15:57:24.565Z,1.10
2017-09-15T15:59:52.075Z,1.63
2017-09-15T16:02:19.592Z,1.23
2017-09-15T16:04:47.111Z,1.50
2017-09-15T16:07:14.649Z,1.07
2017-09-15T16:09:42.186Z,1.10
2017-09-15T16:12:09.819Z,1.23
2017-09-15T16:14:37.356Z,1.10
2017-09-15T16:17:04.990Z,1.27
2017-09-15T16:19:33.289Z,1.40
2017-09-15T16:22:00.818Z,1.10
2017-09-15T16:24:28.333Z,1.13
2017-09-15T16:26:55.877Z,1.20
2017-09-15T16:29:23.425Z,1.40
2017-09-15T16:31:50.970Z,1.53
2017-09-15T16:34:18.526Z,1.30
2017-09-15T16:36:46.863Z,1.20
2017-09-15T16:39:19.923Z,2.03
2017-09-15T16:41:53.090Z,1.60
2017-09-15T16:44:26.358Z,2.07
2017-09-15T16:47:00.252Z,2.10
2017-09-15T16:49:30.166Z,8.83
2017-09-15T16:51:57.710Z,4.83
2017-09-15T16:54:25.270Z,3.80
2017-09-15T16:56:52.866Z,2.10
2017-09-15T16:59:21.157Z,2.63
2017-09-15T17:01:49.468Z,3.30
2017-09-15T17:04:17.022Z,3.17
2017-09-15T17:06:44.795Z,2.00
2017-09-15T17:09:12.427Z,1.90
2017-09-15T17:11:39.991Z,2.40
2017-09-15T17:14:07.526Z,2.67
2017-09-15T17:16:35.839Z,2.63
2017-09-15T17:19:03.381Z,2.33
2017-09-15T17:21:30.939Z,1.60
2017-09-15T17:23:58.478Z,1.95
2017-09-15T17:26:26.815Z,2.12
2017-09-15T17:28:54.368Z,1.90
2017-09-15T17:31:22.003Z,1.63
2017-09-15T17:33:52.912Z,2.00
2017-09-15T17:36:20.479Z,2.10
2017-09-15T17:38:47.999Z,2.40
2017-09-15T17:41:15.551Z,2.40
2017-09-15T17:43:44.058Z,2.08
2017-09-15T17:46:11.628Z,1.80
2017-09-15T17:48:39.937Z,2.37
2017-09-15T17:51:07.702Z,2.50
2017-09-15T17:53:39.223Z,3.50
2017-09-15T17:56:06.933Z,2.05
2017-09-15T17:58:34.532Z,2.50
2017-09-15T18:01:02.116Z,2.20
2017-09-15T18:03:29.710Z,2.35
2017-09-15T18:05:57.316Z,2.35
2017-09-15T18:08:24.889Z,2.40
2017-09-15T18:10:52.484Z,1.90
2017-09-15T18:13:21.042Z,1.70
2017-09-15T18:16:01.161Z,2.00
2017-09-15T18:18:42.924Z,1.75
2017-09-15T18:21:12.235Z,2.70
2017-09-15T18:23:41.985Z,2.80
2017-09-15T18:26:09.688Z,3.60
2017-09-15T18:28:37.306Z,3.42
2017-09-15T18:31:04.928Z,3.10
2017-09-15T18:33:32.522Z,3.15
2017-09-15T18:36:00.199Z,2.53
2017-09-15T18:38:27.789Z,2.37
2017-09-15T18:40:55.394Z,2.42
2017-09-15T18:43:23.732Z,2.67
2017-09-15T18:45:52.207Z,3.10
2017-09-15T18:48:19.812Z,3.40
2017-09-15T18:50:47.427Z,3.43
2017-09-15T18:53:15.786Z,4.40
2017-09-15T18:55:44.213Z,3.12
2017-09-15T18:58:11.753Z,3.30
2017-09-15T19:00:40.135Z,2.70
2017-09-15T19:03:07.691Z,2.75
2017-09-15T19:05:35.242Z,3.58
2017-09-15T19:08:03.573Z,2.83
2017-09-15T19:10:31.158Z,2.42
2017-09-15T19:12:58.702Z,2.20
2017-09-15T19:15:26.239Z,2.42
2017-09-15T19:17:53.761Z,1.87
2017-09-15T19:20:22.105Z,2.20
2017-09-15T19:22:49.646Z,3.70
2017-09-15T19:25:17.174Z,3.42
2017-09-15T19:27:44.695Z,2.62
2017-09-15T19:30:12.249Z,2.95
2017-09-15T19:32:39.778Z,2.45
2017-09-15T19:35:07.346Z,1.87
2017-09-15T19:37:34.897Z,2.37
2017-09-15T19:40:02.464Z,3.10
2017-09-15T19:42:30.019Z,2.80
2017-09-15T19:44:57.585Z,2.87
2017-09-15T19:47:25.110Z,3.10
2017-09-15T19:49:52.642Z,2.85
2017-09-15T19:52:20.933Z,2.78
2017-09-15T19:54:48.471Z,3.08
2017-09-15T19:57:16.763Z,2.63
2017-09-15T19:59:44.306Z,3.33
2017-09-15T20:02:11.855Z,2.55
2017-09-15T20:04:40.098Z,2.45
2017-09-15T20:07:07.651Z,2.30
2017-09-15T20:09:35.170Z,3.72
2017-09-15T20:12:07.154Z,3.00
2017-09-15T20:14:34.670Z,2.97
2017-09-15T20:17:02.974Z,3.15
2017-09-15T20:19:30.488Z,2.80
2017-09-15T20:21:58.018Z,3.55
2017-09-15T20:24:25.663Z,3.83
2017-09-15T20:26:53.383Z,5.00
2017-09-15T20:29:25.501Z,3.95
2017-09-15T20:31:53.072Z,4.37
2017-09-15T20:34:21.673Z,3.95
2017-09-15T20:36:50.104Z,4.47
2017-09-15T20:39:17.653Z,5.35
2017-09-15T20:41:45.809Z,4.63
2017-09-15T20:44:14.250Z,3.92
2017-09-15T20:46:42.741Z,4.12
2017-09-15T20:49:10.365Z,4.40
2017-09-15T20:51:38.072Z,4.20
2017-09-15T20:54:06.469Z,4.00
2017-09-15T20:56:34.880Z,3.45
2017-09-15T21:03:36.349Z,3.60
2017-09-15T21:06:03.931Z,2.50
2017-09-15T21:08:31.481Z,2.83
2017-09-15T21:10:59.057Z,3.17
2017-09-15T21:13:26.589Z,2.60
2017-09-15T21:15:54.202Z,3.00
2017-09-15T21:18:21.755Z,2.62
2017-09-15T21:20:49.340Z,2.90
2017-09-15T21:23:16.872Z,3.20
2017-09-15T21:25:44.451Z,2.47
2017-09-15T21:28:11.982Z,3.10
2017-09-15T21:30:39.543Z,2.90
2017-09-15T21:33:07.098Z,2.30
2017-09-15T21:35:34.724Z,2.58
2017-09-15T21:38:02.308Z,2.25
2017-09-15T21:40:29.866Z,2.45
2017-09-15T21:42:58.172Z,2.12
2017-09-15T21:45:25.876Z,2.45
2017-09-15T21:47:53.431Z,2.33
2017-09-15T21:50:21.774Z,2.42
2017-09-15T21:52:49.385Z,2.40
2017-09-15T21:55:16.996Z,2.83
2017-09-15T21:57:44.545Z,2.78
2017-09-15T22:00:12.131Z,2.60
2017-09-15T22:02:40.470Z,2.42
2017-09-15T22:05:08.092Z,2.92
2017-09-15T22:07:35.906Z,3.12
2017-09-15T22:10:03.539Z,2.20
2017-09-15T22:12:31.109Z,2.50
2017-09-15T22:14:58.688Z,2.42
2017-09-15T22:17:26.281Z,2.80
2017-09-15T22:19:53.909Z,2.10
2017-09-15T22:22:23.817Z,1.95
2017-09-15T22:24:51.385Z,2.00
2017-09-15T22:27:18.924Z,2.20
2017-09-15T22:29:46.524Z,2.15
2017-09-15T22:32:18.434Z,2.00
2017-09-15T22:34:46.003Z,2.00
2017-09-15T22:37:13.547Z,1.60
2017-09-15T22:39:41.118Z,1.83
2017-09-15T22:42:08.704Z,2.00
2017-09-15T22:44:36.265Z,1.65
2017-09-15T22:47:03.793Z,1.70
2017-09-15T22:49:31.358Z,2.20
2017-09-15T22:51:58.881Z,2.00
2017-09-15T22:54:31.461Z,2.00
2017-09-15T22:56:59.027Z,2.58
2017-09-15T22:59:26.571Z,1.70
2017-09-15T23:01:54.154Z,2.17
2017-09-15T23:04:21.704Z,1.58
2017-09-15T23:06:49.283Z,1.60
2017-09-15T23:09:16.893Z,2.45
2017-09-15T23:11:44.462Z,1.58
2017-09-15T23:14:12.797Z,1.75
2017-09-15T23:16:40.348Z,1.92
2017-09-15T23:19:07.880Z,1.60
2017-09-15T23:21:35.461Z,1.58
2017-09-15T23:24:03.014Z,1.80
2017-09-15T23:26:30.577Z,1.80
2017-09-15T23:28:58.122Z,1.70
2017-09-15T23:31:25.659Z,1.40
2017-09-15T23:33:56.802Z,1.50
2017-09-15T23:36:25.095Z,1.48
2017-09-15T23:38:52.613Z,1.50
2017-09-15T23:41:20.159Z,1.37
2017-09-15T23:43:47.690Z,1.60
2017-09-15T23:46:15.212Z,1.90
2017-09-15T23:48:43.498Z,1.77
2017-09-15T23:51:11.800Z,1.60
2017-09-15T23:53:39.307Z,1.73
2017-09-15T23:56:06.825Z,1.50
2017-09-15T23:58:34.321Z,1.60
